Time;durP1;ratioP1;P1;durP2;ratioP2;P2;SDS_P1;SDS_P2;PMS_P1;PMS_P2;Temp;Humidity;BMP_temperature;BMP_pressure;BME280_temperature;BME280_humidity;BME280_pressure;Samples;Min_cycle;Max_cycle;Signal;HPM_P1;HPM_P2
2021/12/02 00:01:29;;;;;;;4.28;0.82;;;;;;;;;;5051869;28;20037;-67
2021/12/02 00:03:56;;;;;;;6.10;1.02;;;;;;;;;;5052345;28;20045;-67
2021/12/02 00:06:22;;;;;;;7.45;1.25;;;;;;;;;;5052074;28;20049;-67
2021/12/02 00:08:49;;;;;;;2.90;0.60;;;;;;;;;;5052598;28;20040;-67
2021/12/02 00:11:16;;;;;;;3.58;0.65;;;;;;;;;;5052398;28;20167;-66
2021/12/02 00:21:23;;;;;;;5.50;0.90;;;;;;;;;;5051784;28;20128;-66
2021/12/02 00:24:02;;;;;;;7.20;1.10;;;;;;;;;;5051818;28;20048;-66
2021/12/02 00:26:29;;;;;;;4.50;0.80;;;;;;;;;;5051815;28;20502;-66
2021/12/02 00:28:57;;;;;;;5.82;0.90;;;;;;;;;;5051808;28;20444;-66
2021/12/02 00:31:25;;;;;;;4.70;0.85;;;;;;;;;;5051831;28;20043;-66
2021/12/02 00:33:52;;;;;;;5.00;0.90;;;;;;;;;;5033883;28;20383;-66
2021/12/02 00:36:19;;;;;;;3.67;0.90;;;;;;;;;;5033540;28;20068;-66
2021/12/02 00:38:46;;;;;;;4.57;0.70;;;;;;;;;;5051905;28;20401;-66
2021/12/02 00:41:14;;;;;;;2.90;0.70;;;;;;;;;;5051587;28;20088;-66
2021/12/02 00:43:40;;;;;;;6.40;1.15;;;;;;;;;;5051519;28;20040;-66
2021/12/02 00:46:08;;;;;;;6.03;0.77;;;;;;;;;;5051752;28;20037;-67
2021/12/02 00:48:35;;;;;;;2.85;0.80;;;;;;;;;;5051745;28;20045;-67
2021/12/02 00:51:01;;;;;;;7.05;1.08;;;;;;;;;;5051356;28;20040;-67
2021/12/02 00:53:28;;;;;;;6.45;1.45;;;;;;;;;;5051575;28;20066;-67
2021/12/02 00:55:54;;;;;;;5.25;0.80;;;;;;;;;;5033717;28;20427;-67
2021/12/02 00:58:23;;;;;;;7.85;2.05;;;;;;;;;;5051290;28;20041;-67
2021/12/02 01:00:51;;;;;;;8.68;1.00;;;;;;;;;;5051389;28;20041;-67
2021/12/02 01:03:17;;;;;;;3.05;0.73;;;;;;;;;;5051270;28;20056;-67
2021/12/02 01:05:43;;;;;;;4.28;0.80;;;;;;;;;;5050739;28;20048;-67
2021/12/02 01:08:09;;;;;;;2.65;0.70;;;;;;;;;;5051538;28;20041;-67
2021/12/02 01:10:35;;;;;;;5.00;1.15;;;;;;;;;;5051742;28;20094;-67
2021/12/02 01:13:01;;;;;;;3.92;0.93;;;;;;;;;;5051006;28;20091;-67
2021/12/02 01:15:28;;;;;;;6.97;0.73;;;;;;;;;;5051511;28;20025;-67
2021/12/02 01:17:54;;;;;;;5.22;0.80;;;;;;;;;;5033651;28;20055;-66
2021/12/02 01:20:20;;;;;;;3.42;1.00;;;;;;;;;;5051099;28;20055;-66
2021/12/02 01:22:48;;;;;;;6.32;0.90;;;;;;;;;;5051143;28;20107;-66
2021/12/02 01:25:16;;;;;;;3.80;0.68;;;;;;;;;;5051218;28;20554;-66
2021/12/02 01:27:46;;;;;;;1.23;0.50;;;;;;;;;;5050938;28;20662;-66
2021/12/02 01:30:12;;;;;;;3.65;0.65;;;;;;;;;;5051292;28;20091;-67
2021/12/02 01:32:39;;;;;;;2.03;0.50;;;;;;;;;;5051205;28;20468;-67
2021/12/02 01:35:05;;;;;;;6.28;0.70;;;;;;;;;;5050942;28;20147;-67
2021/12/02 01:37:32;;;;;;;1.48;0.60;;;;;;;;;;5051315;28;20719;-66
2021/12/02 01:39:58;;;;;;;3.45;0.50;;;;;;;;;;5049978;28;20071;-66
2021/12/02 01:42:27;;;;;;;5.95;0.68;;;;;;;;;;5050475;28;20127;-66
2021/12/02 01:44:54;;;;;;;3.42;0.60;;;;;;;;;;5051150;28;20095;-66
2021/12/02 01:47:22;;;;;;;5.15;0.52;;;;;;;;;;5050914;28;20048;-66
2021/12/02 01:49:51;;;;;;;4.43;0.70;;;;;;;;;;5050895;28;20400;-66
2021/12/02 01:52:18;;;;;;;1.92;0.57;;;;;;;;;;5051183;28;20052;-66
2021/12/02 01:54:45;;;;;;;3.45;0.47;;;;;;;;;;5051081;28;20044;-66
2021/12/02 01:57:17;;;;;;;4.95;0.70;;;;;;;;;;5050896;28;20037;-66
2021/12/02 01:59:48;;;;;;;3.15;0.50;;;;;;;;;;5050730;28;20087;-66
2021/12/02 02:02:15;;;;;;;2.05;0.60;;;;;;;;;;5050505;28;20045;-66
2021/12/02 02:04:42;;;;;;;3.38;0.77;;;;;;;;;;5050757;28;20567;-66
2021/12/02 02:07:12;;;;;;;6.60;0.80;;;;;;;;;;5050842;28;20052;-66
2021/12/02 02:09:38;;;;;;;3.30;0.60;;;;;;;;;;5050948;28;20044;-66
2021/12/02 02:12:06;;;;;;;4.45;0.70;;;;;;;;;;5050273;28;20398;-66
2021/12/02 02:14:32;;;;;;;1.35;0.40;;;;;;;;;;5050959;28;20087;-66
2021/12/02 02:17:02;;;;;;;3.88;0.60;;;;;;;;;;5050934;28;20041;-66
2021/12/02 02:19:30;;;;;;;6.20;0.80;;;;;;;;;;5050517;28;20521;-66
2021/12/02 02:21:56;;;;;;;1.95;0.45;;;;;;;;;;5050623;28;20132;-66
2021/12/02 02:24:23;;;;;;;3.45;0.50;;;;;;;;;;5052233;28;20049;-66
2021/12/02 02:26:49;;;;;;;3.38;0.80;;;;;;;;;;5054069;28;20045;-66
2021/12/02 02:29:17;;;;;;;2.50;0.70;;;;;;;;;;5054374;28;20386;-66
2021/12/02 02:31:44;;;;;;;4.43;0.40;;;;;;;;;;5054053;28;20049;-66
2021/12/02 02:34:10;;;;;;;7.38;0.70;;;;;;;;;;5054001;28;20454;-66
2021/12/02 02:36:40;;;;;;;2.28;0.68;;;;;;;;;;5054318;28;20045;-66
2021/12/02 02:39:06;;;;;;;4.10;0.70;;;;;;;;;;5053899;28;20049;-66
2021/12/02 02:41:37;;;;;;;2.75;0.60;;;;;;;;;;5053737;28;20548;-66
2021/12/02 02:44:04;;;;;;;2.47;0.77;;;;;;;;;;5054271;28;20048;-66
2021/12/02 02:46:37;;;;;;;1.50;0.22;;;;;;;;;;5054262;28;20041;-66
2021/12/02 02:49:06;;;;;;;2.72;0.40;;;;;;;;;;5053794;28;20987;-66
2021/12/02 02:51:32;;;;;;;3.78;0.43;;;;;;;;;;5054026;28;20106;-66
2021/12/02 02:54:07;;;;;;;2.45;0.52;;;;;;;;;;5053757;28;20427;-66
2021/12/02 02:56:35;;;;;;;1.50;0.50;;;;;;;;;;5053509;28;20090;-66
2021/12/02 03:01:41;;;;;;;1.60;0.32;;;;;;;;;;5053546;28;20055;-66
2021/12/02 03:04:26;;;;;;;3.03;0.47;;;;;;;;;;5053440;28;20041;-66
2021/12/02 03:07:01;;;;;;;1.95;0.50;;;;;;;;;;5053564;28;20053;-66
2021/12/02 03:12:04;;;;;;;6.47;1.40;;;;;;;;;;5053367;28;20140;-66
2021/12/02 03:14:36;;;;;;;3.47;0.65;;;;;;;;;;5053564;28;20049;-66
2021/12/02 03:17:02;;;;;;;3.13;0.70;;;;;;;;;;5052957;28;20049;-66
2021/12/02 03:19:29;;;;;;;1.70;0.47;;;;;;;;;;5053485;28;20032;-66
2021/12/02 03:21:56;;;;;;;1.42;0.40;;;;;;;;;;5053186;28;20554;-66
2021/12/02 03:24:23;;;;;;;2.35;0.55;;;;;;;;;;5053017;28;20045;-66
2021/12/02 03:26:49;;;;;;;4.07;0.50;;;;;;;;;;5053352;28;20036;-66
2021/12/02 03:29:15;;;;;;;1.52;0.57;;;;;;;;;;5053299;28;20112;-66
2021/12/02 03:31:41;;;;;;;4.60;0.60;;;;;;;;;;5052844;28;20041;-66
2021/12/02 03:34:08;;;;;;;2.25;0.40;;;;;;;;;;5052886;28;20120;-67
2021/12/02 03:36:34;;;;;;;3.25;0.50;;;;;;;;;;5052065;28;20045;-66
2021/12/02 03:39:01;;;;;;;1.88;0.70;;;;;;;;;;5052919;28;20033;-66
2021/12/02 03:41:27;;;;;;;1.17;0.35;;;;;;;;;;5052647;28;20049;-66
2021/12/02 03:43:53;;;;;;;3.03;0.50;;;;;;;;;;5052862;28;20069;-66
2021/12/02 03:46:21;;;;;;;4.28;0.68;;;;;;;;;;5052909;28;20548;-66
2021/12/02 03:48:48;;;;;;;1.70;0.38;;;;;;;;;;5052565;28;20056;-66
2021/12/02 03:51:14;;;;;;;4.47;0.75;;;;;;;;;;5052806;28;20559;-66
2021/12/02 03:53:40;;;;;;;3.67;0.63;;;;;;;;;;5052956;28;20045;-66
2021/12/02 03:56:07;;;;;;;9.52;0.80;;;;;;;;;;5052458;28;20069;-66
2021/12/02 03:58:33;;;;;;;4.18;0.82;;;;;;;;;;5052774;28;20029;-66
2021/12/02 04:00:59;;;;;;;2.92;0.70;;;;;;;;;;5052520;28;20039;-66
2021/12/02 04:03:25;;;;;;;1.83;0.52;;;;;;;;;;5052260;28;20087;-66
2021/12/02 04:05:51;;;;;;;4.28;0.75;;;;;;;;;;5052509;28;20087;-66
2021/12/02 04:08:18;;;;;;;0.98;0.40;;;;;;;;;;5052628;28;20483;-66
2021/12/02 04:10:45;;;;;;;1.67;0.50;;;;;;;;;;5052255;28;20041;-66
2021/12/02 04:13:24;;;;;;;1.67;0.52;;;;;;;;;;5052535;28;20120;-66
2021/12/02 04:15:54;;;;;;;2.42;0.73;;;;;;;;;;5052537;28;20416;-66
2021/12/02 04:18:20;;;;;;;3.38;0.68;;;;;;;;;;5051798;28;20049;-67
2021/12/02 04:20:46;;;;;;;2.88;0.73;;;;;;;;;;5052047;28;20033;-67
2021/12/02 04:23:12;;;;;;;0.70;0.47;;;;;;;;;;5051921;28;20061;-67
2021/12/02 04:25:38;;;;;;;1.10;0.55;;;;;;;;;;5051740;28;20378;-66
2021/12/02 04:28:04;;;;;;;2.35;0.47;;;;;;;;;;5051779;28;20049;-66
2021/12/02 04:30:31;;;;;;;3.70;0.60;;;;;;;;;;5051945;28;20037;-66
2021/12/02 04:32:57;;;;;;;2.83;0.55;;;;;;;;;;5051642;28;20033;-66
2021/12/02 04:35:23;;;;;;;3.50;0.55;;;;;;;;;;5052106;28;20040;-66
2021/12/02 04:37:51;;;;;;;1.40;0.50;;;;;;;;;;5034151;28;20056;-66
2021/12/02 04:40:20;;;;;;;4.25;0.40;;;;;;;;;;5051180;28;20053;-66
2021/12/02 04:42:46;;;;;;;1.92;0.52;;;;;;;;;;5051952;28;20048;-66
2021/12/02 04:45:13;;;;;;;2.22;0.40;;;;;;;;;;5051719;28;20601;-66
2021/12/02 04:47:39;;;;;;;1.33;0.50;;;;;;;;;;5051287;28;20041;-66
2021/12/02 04:50:06;;;;;;;4.60;0.50;;;;;;;;;;5051895;28;20059;-66
2021/12/02 04:52:32;;;;;;;2.10;0.80;;;;;;;;;;5051793;28;20090;-66
2021/12/02 04:54:58;;;;;;;3.38;1.05;;;;;;;;;;5051499;28;20079;-66
2021/12/02 04:57:24;;;;;;;1.65;0.50;;;;;;;;;;5051774;28;20072;-66
2021/12/02 04:59:50;;;;;;;2.35;1.00;;;;;;;;;;5051567;28;20103;-66
2021/12/02 05:02:16;;;;;;;4.97;0.65;;;;;;;;;;5051140;28;20044;-66
2021/12/02 05:04:42;;;;;;;5.50;0.55;;;;;;;;;;5051413;28;20040;-66
2021/12/02 05:07:09;;;;;;;2.10;0.50;;;;;;;;;;5051657;28;20592;-66
2021/12/02 05:09:35;;;;;;;3.55;1.23;;;;;;;;;;5051330;28;20383;-66
2021/12/02 05:12:01;;;;;;;1.23;0.57;;;;;;;;;;5033462;28;20040;-66
2021/12/02 05:14:27;;;;;;;4.47;0.73;;;;;;;;;;5051490;28;20039;-66
2021/12/02 05:16:53;;;;;;;3.10;0.60;;;;;;;;;;5051128;28;20045;-66
2021/12/02 05:19:19;;;;;;;2.50;0.60;;;;;;;;;;5051425;28;20506;-66
2021/12/02 05:21:45;;;;;;;1.92;0.60;;;;;;;;;;5050678;28;20049;-66
2021/12/02 05:24:11;;;;;;;10.57;1.55;;;;;;;;;;5051104;28;20056;-66
2021/12/02 05:26:37;;;;;;;1.73;0.43;;;;;;;;;;5051285;28;20041;-67
2021/12/02 05:29:03;;;;;;;1.80;0.50;;;;;;;;;;5051241;28;20372;-66
2021/12/02 05:31:29;;;;;;;2.40;0.40;;;;;;;;;;5050714;28;20044;-66
2021/12/02 05:33:55;;;;;;;1.88;0.68;;;;;;;;;;5051324;28;20045;-66
2021/12/02 05:36:21;;;;;;;1.98;0.38;;;;;;;;;;5051307;28;20416;-66
2021/12/02 05:38:48;;;;;;;2.42;0.40;;;;;;;;;;5050842;28;20037;-66
2021/12/02 05:41:15;;;;;;;3.60;0.47;;;;;;;;;;5051029;28;20132;-66
2021/12/02 05:43:41;;;;;;;1.98;0.50;;;;;;;;;;5051216;28;20044;-66
2021/12/02 05:46:07;;;;;;;1.27;0.40;;;;;;;;;;5050838;28;20407;-66
2021/12/02 05:48:33;;;;;;;2.10;0.60;;;;;;;;;;5051280;28;20041;-66
2021/12/02 05:50:59;;;;;;;1.50;0.40;;;;;;;;;;5050840;28;20124;-66
2021/12/02 05:53:25;;;;;;;0.77;0.50;;;;;;;;;;5050771;28;20079;-66
2021/12/02 05:55:51;;;;;;;0.40;0.40;;;;;;;;;;5051164;28;20114;-66
2021/12/02 05:58:17;;;;;;;3.17;0.50;;;;;;;;;;5051121;28;20044;-66
2021/12/02 06:00:44;;;;;;;1.42;0.50;;;;;;;;;;5054169;28;20536;-66
2021/12/02 06:03:10;;;;;;;1.83;0.40;;;;;;;;;;5054979;28;20439;-66
2021/12/02 06:05:36;;;;;;;6.80;0.70;;;;;;;;;;5054948;28;20045;-66
2021/12/02 06:08:03;;;;;;;4.03;0.60;;;;;;;;;;5054496;28;20056;-66
2021/12/02 06:10:30;;;;;;;1.77;0.57;;;;;;;;;;5054916;28;20037;-67
2021/12/02 06:12:59;;;;;;;1.17;0.50;;;;;;;;;;5054707;28;20073;-66
2021/12/02 06:15:25;;;;;;;3.15;0.70;;;;;;;;;;5054221;28;20095;-66
2021/12/02 06:17:51;;;;;;;1.27;0.47;;;;;;;;;;5054648;28;20055;-66
2021/12/02 06:20:18;;;;;;;2.22;0.50;;;;;;;;;;5054515;28;20045;-66
2021/12/02 06:22:44;;;;;;;3.03;0.65;;;;;;;;;;5053856;28;20132;-66
2021/12/02 06:27:40;;;;;;;1.48;0.45;;;;;;;;;;5054358;28;20514;-66
2021/12/02 06:30:06;;;;;;;0.30;0.30;;;;;;;;;;5053812;28;20037;-66
2021/12/02 06:32:32;;;;;;;2.90;0.50;;;;;;;;;;5054322;28;20044;-66
2021/12/02 06:34:58;;;;;;;4.70;0.90;;;;;;;;;;5054366;28;20041;-66
2021/12/02 06:37:25;;;;;;;4.00;0.80;;;;;;;;;;5053793;28;20045;-66
2021/12/02 06:39:51;;;;;;;4.78;1.50;;;;;;;;;;5054104;28;20392;-66
2021/12/02 06:42:17;;;;;;;4.80;1.40;;;;;;;;;;5053946;28;20487;-66
2021/12/02 06:44:43;;;;;;;3.40;1.30;;;;;;;;;;5053791;28;20167;-66
2021/12/02 06:47:09;;;;;;;2.10;0.77;;;;;;;;;;5054005;28;20112;-66
2021/12/02 06:49:37;;;;;;;3.38;0.85;;;;;;;;;;5053873;28;20387;-67
2021/12/02 06:52:09;;;;;;;3.17;0.60;;;;;;;;;;5053558;28;20063;-67
2021/12/02 06:54:35;;;;;;;0.63;0.40;;;;;;;;;;5052980;28;20052;-67
2021/12/02 06:57:01;;;;;;;0.90;0.47;;;;;;;;;;5052621;28;20045;-67
2021/12/02 06:59:27;;;;;;;1.95;0.68;;;;;;;;;;5051819;28;20037;-67
2021/12/02 07:01:53;;;;;;;2.22;0.45;;;;;;;;;;5052123;28;20048;-67
2021/12/02 07:04:19;;;;;;;2.53;0.60;;;;;;;;;;5052150;28;20037;-66
2021/12/02 07:06:44;;;;;;;2.17;0.55;;;;;;;;;;5051793;28;20063;-66
2021/12/02 07:09:10;;;;;;;2.97;0.50;;;;;;;;;;5052367;28;20041;-66
2021/12/02 07:11:37;;;;;;;2.72;0.70;;;;;;;;;;5051958;28;20037;-66
2021/12/02 07:14:06;;;;;;;3.08;0.80;;;;;;;;;;5034004;28;20449;-66
2021/12/02 07:16:32;;;;;;;6.53;2.05;;;;;;;;;;5052037;28;20084;-66
2021/12/02 07:18:59;;;;;;;5.70;1.40;;;;;;;;;;5052026;28;20099;-66
2021/12/02 07:21:25;;;;;;;3.78;1.08;;;;;;;;;;5051688;28;20675;-66
2021/12/02 07:23:52;;;;;;;3.08;0.60;;;;;;;;;;5045422;28;20057;-66
2021/12/02 07:26:18;;;;;;;1.10;0.50;;;;;;;;;;5051297;28;20063;-65
2021/12/02 07:28:48;;;;;;;0.90;0.40;;;;;;;;;;5049552;28;20079;-71
2021/12/02 07:31:14;;;;;;;2.05;0.52;;;;;;;;;;5048811;28;20508;-67
2021/12/02 07:33:48;;;;;;;1.65;0.77;;;;;;;;;;5037956;28;20049;-67
2021/12/02 07:36:14;;;;;;;1.05;0.60;;;;;;;;;;5038179;28;20049;-67
2021/12/02 07:38:41;;;;;;;2.33;0.90;;;;;;;;;;5051530;28;20040;-67
2021/12/02 07:41:07;;;;;;;0.77;0.70;;;;;;;;;;5051121;28;20044;-67
2021/12/02 07:43:34;;;;;;;1.13;0.70;;;;;;;;;;5063374;28;20036;-68
2021/12/02 07:46:03;;;;;;;1.02;0.70;;;;;;;;;;5044452;28;20037;-69
2021/12/02 07:48:29;;;;;;;1.27;0.70;;;;;;;;;;5050588;28;20044;-70
2021/12/02 07:50:56;;;;;;;1.15;0.68;;;;;;;;;;5032639;28;20369;-69
2021/12/02 07:53:26;;;;;;;1.70;1.25;;;;;;;;;;5051874;28;20083;-70
2021/12/02 07:55:54;;;;;;;2.42;1.20;;;;;;;;;;5052009;28;20079;-69
2021/12/02 07:58:21;;;;;;;1.20;0.90;;;;;;;;;;5033246;28;20078;-71
2021/12/02 08:00:48;;;;;;;3.55;1.10;;;;;;;;;;5033668;28;20123;-70
2021/12/02 08:03:14;;;;;;;1.83;1.20;;;;;;;;;;5032975;28;20063;-69
2021/12/02 08:05:41;;;;;;;3.00;1.00;;;;;;;;;;5031243;28;20071;-70
2021/12/02 08:08:07;;;;;;;4.35;0.95;;;;;;;;;;5052012;28;20110;-70
2021/12/02 08:10:33;;;;;;;0.98;0.82;;;;;;;;;;5033420;28;20052;-70
2021/12/02 08:13:01;;;;;;;2.92;0.93;;;;;;;;;;5051152;28;20144;-71
2021/12/02 08:15:28;;;;;;;2.20;0.88;;;;;;;;;;5033507;28;20064;-68
2021/12/02 08:17:55;;;;;;;1.25;0.80;;;;;;;;;;5033538;28;20045;-68
2021/12/02 08:20:23;;;;;;;2.00;1.10;;;;;;;;;;5033566;28;20045;-68
2021/12/02 08:22:49;;;;;;;2.20;0.93;;;;;;;;;;5039542;28;20054;-68
2021/12/02 08:25:15;;;;;;;1.08;0.75;;;;;;;;;;5013214;28;20160;-67
2021/12/02 08:27:42;;;;;;;2.17;0.65;;;;;;;;;;5012401;28;20503;-67
2021/12/02 08:30:09;;;;;;;2.60;0.70;;;;;;;;;;5013381;28;20377;-67
2021/12/02 08:32:38;;;;;;;1.90;0.60;;;;;;;;;;5013364;28;20042;-67
2021/12/02 08:35:04;;;;;;;1.13;0.63;;;;;;;;;;5012586;28;20046;-68
2021/12/02 08:37:32;;;;;;;1.50;0.60;;;;;;;;;;5028320;28;20061;-68
2021/12/02 08:40:02;;;;;;;3.90;0.70;;;;;;;;;;5032383;28;20391;-68
2021/12/02 08:42:31;;;;;;;1.70;0.45;;;;;;;;;;5013223;28;20052;-69
2021/12/02 08:44:57;;;;;;;1.27;0.68;;;;;;;;;;5013277;28;20107;-69
2021/12/02 08:47:25;;;;;;;11.27;0.90;;;;;;;;;;5030841;28;20041;-70
2021/12/02 08:49:54;;;;;;;0.40;0.40;;;;;;;;;;5013034;28;20099;-69
2021/12/02 08:52:21;;;;;;;1.55;0.40;;;;;;;;;;5025720;28;20040;-68
2021/12/02 08:54:48;;;;;;;2.83;1.00;;;;;;;;;;5012253;28;20133;-69
2021/12/02 08:57:14;;;;;;;2.35;0.50;;;;;;;;;;5013246;28;20045;-70
2021/12/02 08:59:42;;;;;;;0.60;0.40;;;;;;;;;;5013359;28;20155;-69
2021/12/02 09:02:08;;;;;;;1.17;0.30;;;;;;;;;;5031569;28;20064;-70
2021/12/02 09:04:34;;;;;;;1.85;0.73;;;;;;;;;;5031518;28;20509;-70
2021/12/02 09:07:01;;;;;;;0.80;0.40;;;;;;;;;;5014390;28;20037;-68
2021/12/02 09:09:27;;;;;;;1.40;0.52;;;;;;;;;;5030919;28;20048;-70
2021/12/02 09:11:55;;;;;;;3.47;0.80;;;;;;;;;;5030844;28;20095;-69
2021/12/02 09:14:21;;;;;;;2.35;0.90;;;;;;;;;;5030310;28;20582;-70
2021/12/02 09:16:49;;;;;;;2.13;0.85;;;;;;;;;;5023842;28;20048;-68
2021/12/02 09:19:15;;;;;;;2.53;0.77;;;;;;;;;;5030094;28;20423;-70
2021/12/02 09:21:41;;;;;;;4.22;0.77;;;;;;;;;;5030410;28;20052;-68
2021/12/02 09:24:08;;;;;;;1.08;0.70;;;;;;;;;;5029146;28;20060;-70
2021/12/02 09:26:34;;;;;;;1.17;0.50;;;;;;;;;;5031617;28;20167;-69
2021/12/02 09:29:00;;;;;;;3.92;1.20;;;;;;;;;;5023945;28;20033;-69
2021/12/02 09:31:26;;;;;;;1.85;0.90;;;;;;;;;;5031752;28;20051;-68
2021/12/02 09:33:52;;;;;;;2.63;0.80;;;;;;;;;;5024270;28;20041;-68
2021/12/02 09:36:19;;;;;;;1.52;0.95;;;;;;;;;;5036494;28;20130;-66
2021/12/02 09:38:46;;;;;;;2.58;0.80;;;;;;;;;;5054062;28;20051;-65
2021/12/02 09:41:12;;;;;;;1.60;0.90;;;;;;;;;;5054506;28;20044;-66
2021/12/02 09:43:39;;;;;;;2.17;0.73;;;;;;;;;;5054942;28;20115;-66
2021/12/02 09:46:05;;;;;;;1.20;0.80;;;;;;;;;;5052953;28;20120;-66
2021/12/02 09:48:32;;;;;;;3.83;1.00;;;;;;;;;;5054286;28;20037;-68
2021/12/02 09:51:22;;;;;;;2.08;0.70;;;;;;;;;;5036570;28;20052;-67
2021/12/02 09:53:57;;;;;;;2.42;0.60;;;;;;;;;;5052888;28;20092;-68
2021/12/02 09:56:27;;;;;;;2.45;0.90;;;;;;;;;;5036249;28;20064;-67
2021/12/02 09:58:57;;;;;;;2.63;0.60;;;;;;;;;;5036037;28;20055;-66
2021/12/02 10:01:30;;;;;;;2.45;0.70;;;;;;;;;;5053201;28;20045;-66
2021/12/02 10:04:02;;;;;;;2.63;0.60;;;;;;;;;;5054246;28;20052;-66
2021/12/02 10:06:32;;;;;;;2.85;0.70;;;;;;;;;;5054187;28;20609;-66
2021/12/02 10:09:10;;;;;;;7.22;0.85;;;;;;;;;;5053102;28;20037;-65
2021/12/02 10:11:42;;;;;;;2.28;0.90;;;;;;;;;;5036402;28;20037;-66
2021/12/02 10:14:12;;;;;;;1.60;0.77;;;;;;;;;;5053704;28;20124;-67
2021/12/02 10:16:43;;;;;;;3.63;0.98;;;;;;;;;;5053516;28;20033;-66
2021/12/02 10:19:10;;;;;;;5.20;0.95;;;;;;;;;;5053569;28;20037;-66
2021/12/02 10:21:44;;;;;;;2.50;0.80;;;;;;;;;;5027114;28;20052;-66
2021/12/02 10:24:12;;;;;;;1.60;0.80;;;;;;;;;;5053173;28;20052;-66
2021/12/02 10:26:44;;;;;;;3.60;0.80;;;;;;;;;;5053582;28;20720;-69
2021/12/02 10:29:15;;;;;;;2.63;0.80;;;;;;;;;;5047204;28;20068;-66
2021/12/02 10:31:46;;;;;;;2.22;0.75;;;;;;;;;;5051080;28;20037;-67
2021/12/02 10:34:13;;;;;;;2.25;0.63;;;;;;;;;;5053897;28;20106;-67
2021/12/02 10:36:43;;;;;;;2.72;0.70;;;;;;;;;;5035391;28;20049;-66
2021/12/02 10:39:19;;;;;;;9.15;0.77;;;;;;;;;;5052590;28;20132;-67
2021/12/02 10:41:46;;;;;;;3.60;0.70;;;;;;;;;;5052698;28;20040;-67
2021/12/02 10:44:23;;;;;;;3.85;1.00;;;;;;;;;;5052698;28;20107;-67
2021/12/02 10:46:53;;;;;;;3.10;0.90;;;;;;;;;;5051902;28;20044;-65
2021/12/02 10:49:19;;;;;;;3.22;0.70;;;;;;;;;;5053073;28;20455;-65
2021/12/02 10:51:46;;;;;;;2.80;0.60;;;;;;;;;;5052755;28;20045;-68
2021/12/02 10:54:17;;;;;;;4.63;0.85;;;;;;;;;;5034844;28;20045;-66
2021/12/02 10:56:46;;;;;;;0.70;0.32;;;;;;;;;;5052853;28;20098;-68
2021/12/02 10:59:25;;;;;;;0.52;0.47;;;;;;;;;;5053417;28;20388;-67
2021/12/02 11:01:52;;;;;;;0.50;0.30;;;;;;;;;;5033271;28;20364;-68
2021/12/02 11:04:19;;;;;;;0.25;0.20;;;;;;;;;;5052354;28;20072;-67
2021/12/02 11:06:46;;;;;;;0.52;0.28;;;;;;;;;;5053115;28;20049;-67
2021/12/02 11:09:25;;;;;;;2.15;0.22;;;;;;;;;;5052467;28;20048;-67
2021/12/02 11:12:09;;;;;;;1.23;0.50;;;;;;;;;;5051987;28;20041;-65
2021/12/02 11:14:52;;;;;;;0.50;0.30;;;;;;;;;;5052348;28;20379;-65
2021/12/02 11:17:18;;;;;;;3.53;0.40;;;;;;;;;;5052829;28;20056;-66
2021/12/02 11:19:45;;;;;;;3.33;0.50;;;;;;;;;;5052488;28;20136;-66
2021/12/02 11:22:13;;;;;;;0.50;0.30;;;;;;;;;;5040422;28;20575;-66
2021/12/02 11:24:39;;;;;;;0.98;0.43;;;;;;;;;;5052844;28;20414;-65
2021/12/02 11:27:25;;;;;;;1.70;0.43;;;;;;;;;;5052811;28;20519;-68
2021/12/02 11:29:58;;;;;;;0.75;0.75;;;;;;;;;;5020911;28;20052;-68
2021/12/02 11:32:36;;;;;;;0.98;0.35;;;;;;;;;;5051634;28;20513;-67
2021/12/02 11:35:04;;;;;;;0.65;0.25;;;;;;;;;;5034317;28;20093;-68
2021/12/02 11:37:30;;;;;;;1.35;0.30;;;;;;;;;;5051591;28;20120;-66
2021/12/02 11:39:58;;;;;;;1.50;0.47;;;;;;;;;;5052165;28;20418;-65
2021/12/02 11:42:25;;;;;;;0.75;0.50;;;;;;;;;;5052005;28;20037;-67
2021/12/02 11:44:51;;;;;;;3.10;0.47;;;;;;;;;;5051704;28;20036;-68
2021/12/02 11:47:17;;;;;;;1.67;0.40;;;;;;;;;;5052314;28;20484;-68
2021/12/02 11:49:43;;;;;;;4.90;1.02;;;;;;;;;;5051893;28;20053;-67
2021/12/02 11:52:09;;;;;;;1.60;0.40;;;;;;;;;;5051309;28;20047;-67
2021/12/02 11:54:36;;;;;;;0.22;0.20;;;;;;;;;;5052121;28;20040;-67
2021/12/02 11:57:03;;;;;;;0.40;0.40;;;;;;;;;;5013678;28;20061;-68
2021/12/02 11:59:29;;;;;;;0.30;0.30;;;;;;;;;;5049491;28;20047;-69
2021/12/02 12:01:56;;;;;;;1.33;0.50;;;;;;;;;;5051243;28;20048;-69
2021/12/02 12:04:22;;;;;;;1.38;0.50;;;;;;;;;;5052297;28;20384;-66
2021/12/02 12:06:53;;;;;;;0.80;0.65;;;;;;;;;;5051485;28;20063;-66
2021/12/02 12:09:25;;;;;;;1.23;0.40;;;;;;;;;;5051629;28;20056;-68
2021/12/02 12:11:53;;;;;;;1.33;0.40;;;;;;;;;;5030459;28;20056;-68
2021/12/02 12:14:32;;;;;;;0.40;0.40;;;;;;;;;;5039336;28;20141;-65
2021/12/02 12:17:09;;;;;;;1.58;0.40;;;;;;;;;;5051934;28;20467;-66
2021/12/02 12:19:40;;;;;;;1.08;0.40;;;;;;;;;;5051507;28;20493;-67
2021/12/02 12:22:12;;;;;;;2.13;0.70;;;;;;;;;;5050501;28;20048;-66
2021/12/02 12:24:38;;;;;;;0.40;0.20;;;;;;;;;;5052224;28;20422;-67
2021/12/02 12:27:12;;;;;;;2.90;0.63;;;;;;;;;;5033802;28;20052;-67
2021/12/02 12:29:38;;;;;;;3.08;0.57;;;;;;;;;;5051317;28;20479;-67
2021/12/02 12:32:18;;;;;;;1.25;0.30;;;;;;;;;;5051446;28;20071;-67
2021/12/02 12:37:23;;;;;;;2.30;0.57;;;;;;;;;;5051240;28;20123;-65
2021/12/02 12:39:49;;;;;;;;;;;;;;;;;;5052019;28;20057;-65
2021/12/02 12:42:15;;;;;;;1.60;0.43;;;;;;;;;;5051575;28;19920;-64
2021/12/02 12:44:48;;;;;;;2.03;0.50;;;;;;;;;;5051048;28;20179;-64
2021/12/02 12:47:15;;;;;;;1.67;0.60;;;;;;;;;;5051069;28;20081;-64
2021/12/02 12:49:42;;;;;;;2.58;0.60;;;;;;;;;;5051546;28;20115;-64
2021/12/02 12:52:15;;;;;;;1.70;0.50;;;;;;;;;;5050630;28;20147;-64
2021/12/02 12:54:41;;;;;;;1.83;0.60;;;;;;;;;;5051424;28;20601;-66
2021/12/02 12:57:08;;;;;;;2.72;0.70;;;;;;;;;;5051380;28;20052;-66
2021/12/02 12:59:54;;;;;;;1.13;0.90;;;;;;;;;;5032551;28;20045;-66
2021/12/02 13:02:20;;;;;;;1.17;0.50;;;;;;;;;;5047957;28;20083;-67
2021/12/02 13:04:52;;;;;;;3.60;0.40;;;;;;;;;;5030327;28;20480;-67
2021/12/02 13:07:20;;;;;;;4.72;1.45;;;;;;;;;;5050274;28;20407;-66
2021/12/02 13:10:02;;;;;;;2.13;0.70;;;;;;;;;;5050694;28;20098;-67
2021/12/02 13:12:50;;;;;;;1.42;0.60;;;;;;;;;;5051138;28;20068;-66
2021/12/02 13:15:17;;;;;;;3.42;0.75;;;;;;;;;;5032280;28;20095;-66
2021/12/02 13:17:45;;;;;;;2.00;0.47;;;;;;;;;;5050945;28;20094;-66
2021/12/02 13:20:19;;;;;;;1.58;0.57;;;;;;;;;;5051105;28;20041;-65
2021/12/02 13:22:46;;;;;;;1.70;0.77;;;;;;;;;;5049429;28;20444;-65
2021/12/02 13:25:23;;;;;;;1.50;0.52;;;;;;;;;;5050573;28;20068;-66
2021/12/02 13:27:49;;;;;;;0.77;0.50;;;;;;;;;;5050843;28;20045;-65
2021/12/02 13:30:15;;;;;;;1.08;0.57;;;;;;;;;;5049881;28;20037;-65
2021/12/02 13:32:47;;;;;;;0.80;0.60;;;;;;;;;;5050416;28;20052;-65
2021/12/02 13:35:24;;;;;;;2.08;0.70;;;;;;;;;;5050888;28;20080;-64
2021/12/02 13:38:02;;;;;;;1.90;0.52;;;;;;;;;;5050115;28;20045;-64
2021/12/02 13:40:33;;;;;;;0.80;0.60;;;;;;;;;;5033151;28;20049;-65
2021/12/02 13:42:59;;;;;;;2.53;0.73;;;;;;;;;;5032389;28;20522;-65
2021/12/02 13:45:26;;;;;;;1.15;0.40;;;;;;;;;;5050575;28;20094;-67
2021/12/02 13:48:05;;;;;;;1.05;0.60;;;;;;;;;;5050642;28;20049;-65
2021/12/02 13:50:35;;;;;;;1.48;0.70;;;;;;;;;;5049905;28;20044;-65
2021/12/02 13:53:01;;;;;;;2.30;0.60;;;;;;;;;;5050068;28;20044;-65
2021/12/02 13:55:30;;;;;;;1.33;0.60;;;;;;;;;;5050679;28;20127;-67
2021/12/02 13:58:05;;;;;;;0.98;0.75;;;;;;;;;;5049808;28;20045;-66
2021/12/02 14:00:32;;;;;;;1.02;0.80;;;;;;;;;;5031772;28;20115;-66
2021/12/02 14:03:03;;;;;;;1.83;0.73;;;;;;;;;;5021680;28;20049;-65
2021/12/02 14:05:30;;;;;;;0.57;0.50;;;;;;;;;;5037741;28;20029;-64
2021/12/02 14:07:57;;;;;;;2.97;1.05;;;;;;;;;;5050373;28;20670;-66
2021/12/02 14:10:24;;;;;;;1.83;0.70;;;;;;;;;;5050044;28;20048;-64
2021/12/02 14:12:55;;;;;;;2.63;0.70;;;;;;;;;;5031813;28;20431;-64
2021/12/02 14:15:23;;;;;;;1.33;0.68;;;;;;;;;;5032440;28;20048;-63
2021/12/02 14:17:52;;;;;;;1.50;0.75;;;;;;;;;;5049953;28;20048;-63
2021/12/02 14:20:19;;;;;;;1.95;0.75;;;;;;;;;;5050097;28;20078;-65
2021/12/02 14:22:50;;;;;;;2.95;1.45;;;;;;;;;;5053510;28;20085;-65
2021/12/02 14:25:16;;;;;;;7.80;2.80;;;;;;;;;;5053784;28;20045;-66
2021/12/02 14:27:43;;;;;;;8.55;3.65;;;;;;;;;;5052293;28;20064;-66
2021/12/02 14:30:17;;;;;;;10.50;4.18;;;;;;;;;;5053886;28;20040;-66
2021/12/02 14:32:44;;;;;;;11.38;5.18;;;;;;;;;;5053659;28;20070;-64
2021/12/02 14:35:10;;;;;;;8.43;3.42;;;;;;;;;;5053364;28;20115;-64
2021/12/02 14:37:37;;;;;;;5.03;2.97;;;;;;;;;;5053975;28;20495;-65
2021/12/02 14:40:03;;;;;;;4.20;1.80;;;;;;;;;;5053828;28;20053;-65
2021/12/02 14:42:29;;;;;;;4.10;1.77;;;;;;;;;;5052735;28;20037;-67
2021/12/02 14:44:55;;;;;;;1.67;1.00;;;;;;;;;;5035414;28;20156;-66
2021/12/02 14:47:21;;;;;;;2.88;1.00;;;;;;;;;;5035659;28;20099;-67
2021/12/02 14:49:50;;;;;;;2.17;1.10;;;;;;;;;;5052886;28;20110;-68
2021/12/02 14:52:23;;;;;;;1.38;0.90;;;;;;;;;;5053348;28;20106;-66
2021/12/02 14:55:00;;;;;;;2.67;0.98;;;;;;;;;;5053226;28;20045;-64
2021/12/02 14:57:28;;;;;;;1.38;0.70;;;;;;;;;;5052840;28;20120;-65
2021/12/02 15:00:03;;;;;;;1.40;0.90;;;;;;;;;;5053326;28;20067;-65
2021/12/02 15:02:30;;;;;;;2.40;1.08;;;;;;;;;;5053019;28;20067;-64
2021/12/02 15:04:59;;;;;;;2.05;0.85;;;;;;;;;;5052144;28;20044;-65
2021/12/02 15:07:36;;;;;;;1.17;0.80;;;;;;;;;;5052759;28;20045;-65